createdAt,value
2024-03-13T00:01:13.635Z,42.70
2024-03-13T00:03:41.373Z,44.10
2024-03-13T00:06:09.402Z,47.20
2024-03-13T00:08:36.961Z,44.50
2024-03-13T00:11:04.636Z,46.70
2024-03-13T00:13:32.209Z,38.70
2024-03-13T00:16:00.217Z,43.70
2024-03-13T00:18:27.911Z,42.20
2024-03-13T00:20:55.492Z,46.00
2024-03-13T00:23:23.044Z,52.40
2024-03-13T00:25:50.618Z,48.00
2024-03-13T00:28:18.298Z,46.50
2024-03-13T00:30:46.061Z,50.30
2024-03-13T00:33:13.717Z,39.10
2024-03-13T00:35:41.659Z,49.60
2024-03-13T00:38:09.414Z,52.30
2024-03-13T00:40:37.042Z,49.70
2024-03-13T00:43:04.845Z,54.70
2024-03-13T00:45:32.399Z,52.80
2024-03-13T00:47:59.987Z,47.50
2024-03-13T00:50:27.624Z,54.20
2024-03-13T00:52:55.387Z,45.20
2024-03-13T00:55:23.195Z,46.00
2024-03-13T00:57:51.161Z,43.80
2024-03-13T01:00:18.676Z,51.50
2024-03-13T01:02:46.295Z,57.80
2024-03-13T01:05:14.019Z,52.90
2024-03-13T01:07:41.773Z,53.60
2024-03-13T01:10:09.522Z,51.00
2024-03-13T01:12:40.273Z,51.10
2024-03-13T01:15:07.816Z,58.40
2024-03-13T01:17:35.436Z,52.90
2024-03-13T01:20:03.158Z,53.90
2024-03-13T01:22:31.196Z,52.40
2024-03-13T01:24:58.897Z,57.20
2024-03-13T01:27:26.552Z,50.90
2024-03-13T01:29:54.205Z,53.60
2024-03-13T01:32:22.071Z,54.30
2024-03-13T01:34:49.624Z,53.20
2024-03-13T01:37:17.251Z,51.20
2024-03-13T01:39:45.002Z,46.10
2024-03-13T01:42:12.935Z,47.20
2024-03-13T01:44:40.679Z,53.90
2024-03-13T01:47:08.302Z,52.70
2024-03-13T01:49:36.122Z,59.00
2024-03-13T01:52:03.802Z,59.30
2024-03-13T01:54:31.437Z,53.80
2024-03-13T01:56:59.001Z,55.10
2024-03-13T01:59:26.646Z,51.30
2024-03-13T02:01:54.279Z,50.10
2024-03-13T02:04:22.341Z,47.10
2024-03-13T02:06:50.093Z,49.90
2024-03-13T02:09:17.710Z,55.20
2024-03-13T02:11:45.319Z,38.50
2024-03-13T02:14:12.929Z,52.80
2024-03-13T02:16:40.613Z,53.50
2024-03-13T02:19:08.171Z,50.30
2024-03-13T02:21:35.913Z,46.90
2024-03-13T02:24:03.382Z,45.20
2024-03-13T02:26:30.929Z,45.80
2024-03-13T02:28:58.483Z,57.40
2024-03-13T02:31:26.231Z,53.30
2024-03-13T02:33:53.976Z,53.70
2024-03-13T02:36:21.777Z,51.40
2024-03-13T02:38:49.469Z,54.80
2024-03-13T02:41:17.103Z,56.40
2024-03-13T02:43:44.660Z,56.40
2024-03-13T02:46:12.665Z,48.50
2024-03-13T02:48:40.195Z,51.90
2024-03-13T02:51:07.857Z,43.20
2024-03-13T02:53:35.425Z,54.10
2024-03-13T02:56:03.070Z,56.50
2024-03-13T02:58:30.815Z,58.40
2024-03-13T03:00:58.477Z,59.40
2024-03-13T03:03:26.166Z,54.00
2024-03-13T03:05:53.822Z,52.60
2024-03-13T03:08:21.803Z,49.80
2024-03-13T03:10:49.384Z,57.90
2024-03-13T03:13:16.968Z,58.20
2024-03-13T03:15:44.806Z,54.70
2024-03-13T03:18:12.557Z,49.40
2024-03-13T03:20:40.205Z,65.20
2024-03-13T03:23:07.865Z,59.00
2024-03-13T03:25:35.882Z,53.90
2024-03-13T03:28:03.630Z,52.60
2024-03-13T03:30:31.415Z,56.80
2024-03-13T03:32:59.295Z,52.90
2024-03-13T03:35:26.894Z,53.80
2024-03-13T03:37:54.452Z,61.00
2024-03-13T03:40:21.859Z,50.90
2024-03-13T03:42:49.484Z,67.30
2024-03-13T03:45:17.335Z,54.50
2024-03-13T03:47:46.288Z,66.70
2024-03-13T03:50:16.952Z,62.60
2024-03-13T03:52:44.514Z,61.10
2024-03-13T03:55:12.137Z,58.60
2024-03-13T03:57:39.940Z,62.00
2024-03-13T04:00:07.777Z,58.50
2024-03-13T04:02:35.480Z,60.60
2024-03-13T04:05:03.237Z,64.60
2024-03-13T04:07:30.795Z,57.10
2024-03-13T04:09:58.610Z,61.80
2024-03-13T04:12:26.527Z,61.30
2024-03-13T04:14:54.084Z,64.10
2024-03-13T04:17:21.650Z,51.50
2024-03-13T04:19:49.308Z,50.70
2024-03-13T04:22:16.898Z,60.30
2024-03-13T04:24:44.547Z,52.80
2024-03-13T04:27:12.291Z,61.50
2024-03-13T04:29:44.354Z,58.60
2024-03-13T04:32:16.420Z,48.20
2024-03-13T04:34:43.992Z,45.60
2024-03-13T04:37:11.559Z,54.00
2024-03-13T04:39:39.623Z,63.40
2024-03-13T04:42:07.272Z,56.90
2024-03-13T04:44:34.833Z,57.10
2024-03-13T04:47:02.492Z,57.20
2024-03-13T04:49:30.123Z,54.00
2024-03-13T04:51:57.877Z,61.10
2024-03-13T04:54:25.888Z,56.60
2024-03-13T04:56:53.545Z,56.40
2024-03-13T04:59:21.111Z,71.20
2024-03-13T05:01:48.791Z,84.40
2024-03-13T05:04:16.584Z,48.10
2024-03-13T05:06:44.306Z,70.00
2024-03-13T05:09:12.017Z,98.90
2024-03-13T05:11:39.692Z,106.90
2024-03-13T05:14:07.622Z,81.90
2024-03-13T05:16:35.252Z,53.80
2024-03-13T05:19:02.849Z,57.10
2024-03-13T05:21:30.476Z,63.80
2024-03-13T05:23:58.039Z,59.60
2024-03-13T05:26:25.599Z,60.00
2024-03-13T05:28:53.154Z,52.00
2024-03-13T05:31:20.739Z,58.80
2024-03-13T05:33:48.312Z,58.20
2024-03-13T05:36:16.345Z,55.00
2024-03-13T05:38:44.006Z,58.10
2024-03-13T05:41:11.672Z,56.60
2024-03-13T05:43:39.448Z,53.40
2024-03-13T05:46:07.241Z,52.30
2024-03-13T05:48:34.855Z,58.80
2024-03-13T05:51:02.406Z,49.60
2024-03-13T05:53:29.966Z,49.70
2024-03-13T05:55:57.750Z,52.90
2024-03-13T05:58:25.750Z,61.60
2024-03-13T06:00:53.549Z,57.80
2024-03-13T06:03:21.437Z,44.40
2024-03-13T06:05:49.100Z,49.90
2024-03-13T06:08:16.812Z,57.80
2024-03-13T06:10:44.689Z,52.00
2024-03-13T06:13:12.519Z,63.70
2024-03-13T06:15:40.255Z,68.50
2024-03-13T06:18:08.164Z,66.90
2024-03-13T06:20:35.804Z,60.20
2024-03-13T06:23:03.349Z,51.10
2024-03-13T06:25:31.038Z,47.30
2024-03-13T06:27:58.685Z,47.70
2024-03-13T06:30:26.136Z,44.40
2024-03-13T06:32:53.736Z,54.20
2024-03-13T06:35:21.462Z,50.60
2024-03-13T06:37:49.013Z,45.60
2024-03-13T06:40:17.073Z,53.00
2024-03-13T06:42:44.848Z,51.40
2024-03-13T06:45:18.785Z,54.80
2024-03-13T06:47:52.206Z,49.90
2024-03-13T06:50:19.709Z,49.20
2024-03-13T06:52:47.269Z,51.50
2024-03-13T06:55:15.011Z,49.30
2024-03-13T06:57:42.693Z,46.70
2024-03-13T07:00:12.604Z,43.90
2024-03-13T07:02:40.169Z,45.70
2024-03-13T07:05:08.148Z,47.20
2024-03-13T07:07:35.719Z,48.20
2024-03-13T07:10:03.573Z,44.00
2024-03-13T07:12:31.233Z,42.40
2024-03-13T07:14:58.888Z,39.30
2024-03-13T07:17:26.448Z,47.10
2024-03-13T07:19:54.105Z,49.50
2024-03-13T07:22:21.729Z,48.10
2024-03-13T07:24:49.481Z,65.70
2024-03-13T07:27:17.298Z,100.90
2024-03-13T07:29:44.851Z,93.90
2024-03-13T07:32:12.414Z,105.50
2024-03-13T07:34:40.004Z,65.90
2024-03-13T07:37:07.670Z,45.60
2024-03-13T07:39:35.406Z,41.40
2024-03-13T07:42:02.960Z,52.50
2024-03-13T07:44:30.934Z,50.40
2024-03-13T07:46:58.482Z,56.70
2024-03-13T07:49:26.083Z,47.70
2024-03-13T07:51:53.847Z,42.20
2024-03-13T07:54:21.572Z,42.90
2024-03-13T07:56:49.134Z,39.10
2024-03-13T07:59:16.816Z,40.50
2024-03-13T08:01:44.639Z,39.20
2024-03-13T08:04:12.428Z,38.00
2024-03-13T09:07:11.226Z,49.00
2024-03-13T09:09:38.875Z,38.30
2024-03-13T09:12:07.417Z,33.40
2024-03-13T09:14:35.060Z,36.50
2024-03-13T09:17:02.677Z,42.10
2024-03-13T09:19:30.250Z,33.90
2024-03-13T09:21:58.103Z,31.50
2024-03-13T09:24:26.018Z,33.70
2024-03-13T09:26:53.683Z,38.80
2024-03-13T09:29:24.075Z,33.10
2024-03-13T09:34:19.386Z,44.40
2024-03-13T09:36:47.147Z,34.70
2024-03-13T09:39:14.844Z,36.00
2024-03-13T09:41:42.823Z,30.30
2024-03-13T09:44:10.338Z,31.50
2024-03-13T09:46:37.995Z,32.80
2024-03-13T09:49:08.535Z,32.20
2024-03-13T09:51:36.196Z,33.80
2024-03-13T09:54:03.786Z,26.30
2024-03-13T09:56:31.597Z,31.60
2024-03-13T09:58:59.501Z,31.40
2024-03-13T10:01:27.143Z,31.90
2024-03-13T10:03:58.143Z,27.70
2024-03-13T10:06:26.309Z,29.30
2024-03-13T10:08:54.076Z,27.20
2024-03-13T10:11:21.715Z,28.20
2024-03-13T10:13:49.239Z,23.80
2024-03-13T10:16:16.912Z,24.50
2024-03-13T10:18:44.628Z,24.50
2024-03-13T10:21:12.491Z,25.20
2024-03-13T10:23:40.221Z,23.40
2024-03-13T10:26:07.759Z,20.60
2024-03-13T10:28:35.312Z,20.60
2024-03-13T10:31:02.895Z,22.40
2024-03-13T10:33:30.596Z,19.40
2024-03-13T10:35:58.318Z,23.10
2024-03-13T10:38:26.060Z,24.00
2024-03-13T10:40:53.839Z,23.30
2024-03-13T10:43:21.490Z,21.60
2024-03-13T10:45:49.360Z,21.10
2024-03-13T10:48:17.116Z,22.70
2024-03-13T10:50:44.940Z,21.60
2024-03-13T10:53:12.652Z,21.10
2024-03-13T10:55:40.305Z,23.80
2024-03-13T10:58:07.867Z,20.40
2024-03-13T11:00:35.527Z,26.50
2024-03-13T11:03:03.486Z,25.00
2024-03-13T11:05:31.167Z,41.00
2024-03-13T11:07:59.243Z,22.90
2024-03-13T11:10:26.735Z,22.80
2024-03-13T11:12:54.423Z,22.80
2024-03-13T11:15:22.319Z,24.80
2024-03-13T11:17:50.185Z,22.30
2024-03-13T11:20:17.878Z,19.30
2024-03-13T11:22:45.410Z,21.40
2024-03-13T11:25:13.067Z,23.80
2024-03-13T11:27:40.739Z,19.30
2024-03-13T11:30:09.217Z,17.80
2024-03-13T11:32:37.084Z,20.80
2024-03-13T11:35:04.846Z,21.60
2024-03-13T11:37:32.402Z,20.90
2024-03-13T11:39:59.961Z,20.20
2024-03-13T11:42:27.555Z,20.70
2024-03-13T11:44:57.085Z,17.40
2024-03-13T11:47:24.728Z,19.40
2024-03-13T11:49:52.450Z,19.10
2024-03-13T11:52:20.010Z,23.20
2024-03-13T11:54:47.677Z,19.80
2024-03-13T11:57:15.757Z,23.40
2024-03-13T11:59:43.519Z,19.90
2024-03-13T12:02:11.168Z,21.00
2024-03-13T12:04:38.926Z,19.50
2024-03-13T12:07:06.491Z,22.50
2024-03-13T12:09:34.167Z,22.40
2024-03-13T12:12:01.906Z,18.80
2024-03-13T12:14:30.604Z,19.10
2024-03-13T12:16:58.263Z,19.40
2024-03-13T12:19:25.838Z,19.60
2024-03-13T12:21:53.486Z,21.70
2024-03-13T12:24:21.107Z,21.70
2024-03-13T12:26:48.825Z,20.60
2024-03-13T12:29:16.587Z,20.40
2024-03-13T12:31:44.238Z,22.10
2024-03-13T12:34:11.803Z,18.90
2024-03-13T12:36:39.481Z,20.80
2024-03-13T12:39:07.186Z,20.90
2024-03-13T12:41:35.204Z,18.60
2024-03-13T12:44:02.856Z,20.00
2024-03-13T12:46:30.732Z,19.90
2024-03-13T12:48:58.452Z,19.30
2024-03-13T12:51:26.556Z,19.90
2024-03-13T12:53:54.228Z,19.10
2024-03-13T12:56:21.768Z,18.30
2024-03-13T12:58:49.431Z,18.10
2024-03-13T13:01:17.104Z,44.00
2024-03-13T13:03:44.661Z,19.40
2024-03-13T13:06:12.463Z,18.60
2024-03-13T13:08:40.059Z,19.50
2024-03-13T13:11:07.909Z,20.70
2024-03-13T13:13:36.070Z,17.80
2024-03-13T13:16:03.682Z,22.60
2024-03-13T13:18:31.281Z,20.30
2024-03-13T13:20:59.116Z,22.90
2024-03-13T13:23:26.664Z,21.80
2024-03-13T13:25:54.217Z,19.10
2024-03-13T13:28:21.788Z,19.40
2024-03-13T13:30:49.454Z,15.40
2024-03-13T13:33:17.546Z,17.90
2024-03-13T13:35:45.318Z,18.70
2024-03-13T13:38:13.133Z,15.80
2024-03-13T13:40:40.931Z,15.60
2024-03-13T13:43:08.576Z,17.20
2024-03-13T13:45:36.341Z,17.40
2024-03-13T13:48:04.081Z,14.80
2024-03-13T13:50:31.456Z,16.20
2024-03-13T13:52:59.113Z,24.70
2024-03-13T13:55:26.674Z,20.80
2024-03-13T13:57:54.716Z,31.80
2024-03-13T14:00:24.742Z,24.10
2024-03-13T14:02:53.911Z,22.90
2024-03-13T14:05:22.304Z,18.20
2024-03-13T14:07:50.112Z,16.10
2024-03-13T14:10:17.760Z,17.10
2024-03-13T14:12:45.443Z,16.30
2024-03-13T14:15:13.345Z,19.70
2024-03-13T14:17:40.970Z,18.40
2024-03-13T14:20:08.717Z,17.40
2024-03-13T14:22:36.391Z,17.90
2024-03-13T14:25:04.054Z,19.70
2024-03-13T14:27:31.602Z,23.00
2024-03-13T14:29:59.274Z,18.00
2024-03-13T14:32:26.897Z,16.00
2024-03-13T14:34:59.052Z,17.20
2024-03-13T14:37:27.376Z,24.40
2024-03-13T14:39:55.029Z,17.80
2024-03-13T14:42:28.624Z,18.10
2024-03-13T14:45:02.194Z,16.10
2024-03-13T14:47:30.187Z,25.00
2024-03-13T14:49:57.940Z,18.30
2024-03-13T14:52:25.609Z,16.60
2024-03-13T14:54:53.759Z,15.70
2024-03-13T14:57:22.176Z,15.70
2024-03-13T14:59:50.029Z,16.70
2024-03-13T15:02:17.895Z,16.30
2024-03-13T15:04:45.580Z,23.30
2024-03-13T15:07:13.232Z,21.30
2024-03-13T15:09:40.899Z,19.40
2024-03-13T15:12:09.277Z,25.20
2024-03-13T15:14:37.771Z,18.20
2024-03-13T15:17:05.419Z,26.10
2024-03-13T15:19:32.978Z,24.80
2024-03-13T15:22:00.744Z,24.10
2024-03-13T15:24:28.343Z,34.40
2024-03-13T15:26:55.994Z,21.60
2024-03-13T15:29:23.545Z,23.60
2024-03-13T15:31:51.200Z,25.10
2024-03-13T15:34:18.755Z,28.70
2024-03-13T15:36:46.401Z,28.40
2024-03-13T15:39:14.024Z,32.70
2024-03-13T15:41:43.985Z,29.20
2024-03-13T15:44:12.895Z,24.80
2024-03-13T15:46:40.535Z,22.60
2024-03-13T15:49:08.232Z,34.30
2024-03-13T15:51:35.959Z,31.20
2024-03-13T15:54:03.557Z,24.00
2024-03-13T15:56:31.284Z,24.40
2024-03-13T15:58:58.940Z,37.60
2024-03-13T16:01:27.147Z,24.00
2024-03-13T16:03:54.894Z,35.20
2024-03-13T16:06:22.670Z,46.40
2024-03-13T16:08:50.562Z,73.40
2024-03-13T16:11:18.216Z,108.60
2024-03-13T16:13:45.938Z,108.70
2024-03-13T16:16:13.606Z,174.20
2024-03-13T16:18:41.316Z,209.90
2024-03-13T16:21:09.088Z,187.60
2024-03-13T16:23:37.168Z,360.30
2024-03-13T16:26:05.084Z,353.50
2024-03-13T16:28:32.988Z,202.10
2024-03-13T16:31:00.695Z,159.20
2024-03-13T16:33:28.620Z,149.30
2024-03-13T16:35:56.389Z,122.30
2024-03-13T16:38:24.096Z,142.30
2024-03-13T16:40:51.654Z,345.90
2024-03-13T16:43:19.749Z,140.30
2024-03-13T16:45:47.663Z,170.40
2024-03-13T16:48:15.516Z,68.90
2024-03-13T16:50:43.155Z,119.50
2024-03-13T16:53:10.880Z,78.40
2024-03-13T16:55:38.545Z,42.80
2024-03-13T16:58:06.097Z,30.10
2024-03-13T17:00:33.743Z,29.70
2024-03-13T17:03:01.619Z,35.60
2024-03-13T17:05:29.400Z,40.10
2024-03-13T17:07:57.392Z,40.40
2024-03-13T17:10:24.921Z,36.60
2024-03-13T17:12:52.585Z,34.80
2024-03-13T17:15:20.669Z,33.60
2024-03-13T17:17:48.622Z,38.00
2024-03-13T17:20:16.396Z,43.80
2024-03-13T17:22:43.947Z,49.00
2024-03-13T17:25:11.610Z,59.90
2024-03-13T17:27:39.164Z,65.90
2024-03-13T17:30:07.205Z,73.20
2024-03-13T17:32:34.857Z,88.90
2024-03-13T17:35:02.910Z,93.10
2024-03-13T17:37:30.667Z,124.90
2024-03-13T17:39:58.398Z,144.80
2024-03-13T17:42:26.154Z,140.80
2024-03-13T17:44:53.933Z,89.90
2024-03-13T17:47:21.586Z,94.00
2024-03-13T17:49:49.230Z,90.60
2024-03-13T17:52:17.117Z,93.90
2024-03-13T17:54:44.790Z,100.40
2024-03-13T17:57:12.521Z,87.70
2024-03-13T17:59:40.288Z,76.90
2024-03-13T18:02:07.979Z,71.00
2024-03-13T18:04:35.530Z,58.90
2024-03-13T18:07:03.193Z,62.40
2024-03-13T18:09:30.879Z,72.00
2024-03-13T18:11:58.750Z,62.10
2024-03-13T18:14:26.375Z,72.30
2024-03-13T18:16:54.049Z,63.40
2024-03-13T18:19:21.623Z,65.60
2024-03-13T18:21:49.164Z,54.30
2024-03-13T18:24:16.767Z,71.60
2024-03-13T18:26:44.504Z,122.40
2024-03-13T18:29:12.259Z,127.60
2024-03-13T18:31:39.910Z,141.40
2024-03-13T18:34:07.641Z,63.00
2024-03-13T18:36:35.337Z,97.30
2024-03-13T18:39:04.917Z,67.70
2024-03-13T18:41:33.220Z,50.10
2024-03-13T18:44:00.893Z,94.80
2024-03-13T18:46:28.544Z,129.20
2024-03-13T18:48:56.146Z,136.00
2024-03-13T18:51:24.240Z,108.70
2024-03-13T18:53:52.169Z,89.20
2024-03-13T18:56:19.813Z,108.20
2024-03-13T18:58:47.368Z,100.40
2024-03-13T19:01:15.070Z,109.00
2024-03-13T19:03:42.785Z,219.30
2024-03-13T19:06:10.437Z,163.40
2024-03-13T19:08:38.108Z,177.10
2024-03-13T19:11:05.769Z,184.00
2024-03-13T19:13:33.838Z,192.90
2024-03-13T19:16:01.299Z,192.20
2024-03-13T19:18:29.015Z,247.20
2024-03-13T19:20:56.740Z,184.20
2024-03-13T19:23:24.388Z,196.70
2024-03-13T19:25:51.969Z,118.90
2024-03-13T19:28:19.545Z,99.90
2024-03-13T19:30:47.073Z,91.30
2024-03-13T19:33:15.092Z,99.00
2024-03-13T19:35:42.948Z,70.90
2024-03-13T19:38:10.663Z,79.80
2024-03-13T19:40:40.313Z,73.20
2024-03-13T19:43:08.656Z,117.90
2024-03-13T19:45:36.487Z,57.90
2024-03-13T19:48:04.268Z,61.50
2024-03-13T19:50:31.841Z,54.30
2024-03-13T19:52:59.412Z,60.50
2024-03-13T19:55:26.957Z,60.80
2024-03-13T19:57:54.920Z,51.00
2024-03-13T20:00:22.524Z,63.20
2024-03-13T20:02:50.287Z,66.00
2024-03-13T20:05:17.913Z,67.50
2024-03-13T20:07:45.572Z,64.70
2024-03-13T20:10:13.342Z,74.90
2024-03-13T20:12:41.308Z,76.90
2024-03-13T20:15:09.492Z,107.20
2024-03-13T20:17:37.262Z,120.80
2024-03-13T20:20:05.221Z,100.20
2024-03-13T20:22:32.878Z,83.20
2024-03-13T20:25:00.651Z,86.00
2024-03-13T20:27:28.487Z,97.10
2024-03-13T20:29:56.313Z,79.30
2024-03-13T20:32:23.931Z,72.20
2024-03-13T20:34:51.493Z,73.00
2024-03-13T20:37:19.056Z,55.00
2024-03-13T20:39:47.231Z,47.90
2024-03-13T20:42:14.799Z,44.10
2024-03-13T20:44:42.453Z,45.30
2024-03-13T20:47:10.023Z,58.30
2024-03-13T20:49:37.681Z,66.40
2024-03-13T20:52:05.330Z,70.00
2024-03-13T20:54:32.948Z,75.00
2024-03-13T20:57:00.620Z,76.10
2024-03-13T20:59:28.331Z,66.60
2024-03-13T21:01:55.976Z,71.00
2024-03-13T21:04:23.538Z,69.40
2024-03-13T21:06:51.199Z,86.60
2024-03-13T21:09:18.814Z,115.50
2024-03-13T21:11:46.611Z,107.60
2024-03-13T21:14:14.298Z,99.40
2024-03-13T21:16:42.051Z,98.30
2024-03-13T21:19:09.608Z,84.30
2024-03-13T21:21:37.272Z,89.60
2024-03-13T21:24:04.698Z,90.70
2024-03-13T21:26:32.397Z,88.60
2024-03-13T21:29:00.053Z,58.90
2024-03-13T21:31:27.614Z,53.20
2024-03-13T21:33:55.359Z,55.20
2024-03-13T21:36:23.171Z,61.00
2024-03-13T21:38:50.745Z,55.80
2024-03-13T21:41:18.767Z,91.00
2024-03-13T21:43:46.326Z,81.50
2024-03-13T21:46:13.997Z,101.20
2024-03-13T21:48:41.661Z,180.80
2024-03-13T21:51:09.428Z,193.70
2024-03-13T21:53:37.115Z,166.50
2024-03-13T21:56:04.642Z,159.70
2024-03-13T21:58:32.296Z,139.40
2024-03-13T22:00:59.872Z,223.90
2024-03-13T22:03:28.082Z,204.00
2024-03-13T22:05:55.732Z,241.40
2024-03-13T22:08:23.470Z,238.60
2024-03-13T22:10:51.014Z,243.60
2024-03-13T22:13:18.801Z,235.40
2024-03-13T22:15:46.545Z,239.70
2024-03-13T22:18:14.289Z,109.60
2024-03-13T22:20:42.009Z,94.10
2024-03-13T22:23:10.145Z,69.50
2024-03-13T22:25:37.756Z,70.00
2024-03-13T22:28:05.468Z,80.50
2024-03-13T22:30:32.837Z,72.80
2024-03-13T22:33:00.664Z,61.40
2024-03-13T22:35:28.456Z,64.90
2024-03-13T22:37:56.137Z,57.90
2024-03-13T22:40:23.669Z,57.90
2024-03-13T22:42:51.339Z,50.90
2024-03-13T22:45:19.004Z,50.90
2024-03-13T22:47:46.915Z,59.00
2024-03-13T22:50:14.655Z,52.00
2024-03-13T22:52:42.190Z,48.30
2024-03-13T22:55:09.749Z,49.10
2024-03-13T22:57:37.309Z,48.20
2024-03-13T23:00:04.993Z,50.00
2024-03-13T23:02:32.734Z,48.20
2024-03-13T23:05:00.402Z,45.10
2024-03-13T23:07:27.968Z,39.20
2024-03-13T23:09:56.137Z,35.40
2024-03-13T23:12:24.054Z,34.00
2024-03-13T23:14:51.774Z,37.30
2024-03-13T23:17:19.528Z,37.40
2024-03-13T23:19:47.107Z,36.40
2024-03-13T23:22:14.638Z,31.60
2024-03-13T23:24:42.196Z,35.00
2024-03-13T23:27:10.200Z,32.80
2024-03-13T23:29:37.732Z,31.80
2024-03-13T23:32:05.970Z,33.30
2024-03-13T23:34:33.879Z,39.10
2024-03-13T23:37:01.431Z,44.20
2024-03-13T23:39:29.151Z,49.70
2024-03-13T23:41:56.887Z,65.00
2024-03-13T23:44:24.517Z,118.50
2024-03-13T23:46:52.081Z,112.80
2024-03-13T23:49:20.049Z,70.40
2024-03-13T23:51:47.716Z,49.40
2024-03-13T23:54:15.306Z,44.90
2024-03-13T23:56:42.929Z,56.60
2024-03-13T23:59:10.794Z,70.40
